sensor_id;sensor_type;location;lat;lon;timestamp;P1;durP1;ratioP1;P2;durP2;ratioP2
209;SDS011;90;48.810;9.120;2022-10-15T00:02:18;4.23;;;1.80;;
209;SDS011;90;48.810;9.120;2022-10-15T00:04:46;2.20;;;2.00;;
209;SDS011;90;48.810;9.120;2022-10-15T00:07:14;2.00;;;1.90;;
209;SDS011;90;48.810;9.120;2022-10-15T00:09:44;2.53;;;1.80;;
209;SDS011;90;48.810;9.120;2022-10-15T00:12:11;2.50;;;1.57;;
209;SDS011;90;48.810;9.120;2022-10-15T00:14:39;2.60;;;2.40;;
209;SDS011;90;48.810;9.120;2022-10-15T00:17:06;2.07;;;1.93;;
209;SDS011;90;48.810;9.120;2022-10-15T00:19:34;2.00;;;1.83;;
209;SDS011;90;48.810;9.120;2022-10-15T00:22:01;1.60;;;1.43;;
209;SDS011;90;48.810;9.120;2022-10-15T00:24:30;2.00;;;1.90;;
209;SDS011;90;48.810;9.120;2022-10-15T00:26:57;2.00;;;1.90;;
209;SDS011;90;48.810;9.120;2022-10-15T00:29:25;2.70;;;2.03;;
209;SDS011;90;48.810;9.120;2022-10-15T00:31:54;2.43;;;2.23;;
209;SDS011;90;48.810;9.120;2022-10-15T00:34:33;2.77;;;2.37;;
209;SDS011;90;48.810;9.120;2022-10-15T00:37:00;2.43;;;2.23;;
209;SDS011;90;48.810;9.120;2022-10-15T00:39:31;4.27;;;2.33;;
209;SDS011;90;48.810;9.120;2022-10-15T00:42:00;2.77;;;2.20;;
209;SDS011;90;48.810;9.120;2022-10-15T00:44:50;3.37;;;1.90;;
209;SDS011;90;48.810;9.120;2022-10-15T00:47:26;3.60;;;2.03;;
209;SDS011;90;48.810;9.120;2022-10-15T00:50:05;2.00;;;1.90;;
209;SDS011;90;48.810;9.120;2022-10-15T00:52:38;3.03;;;1.30;;
209;SDS011;90;48.810;9.120;2022-10-15T00:55:16;4.47;;;2.30;;
209;SDS011;90;48.810;9.120;2022-10-15T00:57:57;1.73;;;1.67;;
209;SDS011;90;48.810;9.120;2022-10-15T01:00:38;2.80;;;2.20;;
209;SDS011;90;48.810;9.120;2022-10-15T01:03:09;2.27;;;2.07;;
209;SDS011;90;48.810;9.120;2022-10-15T01:05:39;3.73;;;2.20;;
209;SDS011;90;48.810;9.120;2022-10-15T01:08:11;2.70;;;1.90;;
209;SDS011;90;48.810;9.120;2022-10-15T01:10:43;5.10;;;2.10;;
209;SDS011;90;48.810;9.120;2022-10-15T01:13:25;4.67;;;2.23;;
209;SDS011;90;48.810;9.120;2022-10-15T01:16:11;4.47;;;2.13;;
209;SDS011;90;48.810;9.120;2022-10-15T01:18:52;1.80;;;1.70;;
209;SDS011;90;48.810;9.120;2022-10-15T01:21:25;2.37;;;2.17;;
209;SDS011;90;48.810;9.120;2022-10-15T01:27:12;4.10;;;2.00;;
209;SDS011;90;48.810;9.120;2022-10-15T01:33:14;2.63;;;1.80;;
209;SDS011;90;48.810;9.120;2022-10-15T01:35:58;1.60;;;1.60;;
209;SDS011;90;48.810;9.120;2022-10-15T01:38:42;2.40;;;1.87;;
209;SDS011;90;48.810;9.120;2022-10-15T01:41:15;3.13;;;2.10;;
209;SDS011;90;48.810;9.120;2022-10-15T01:43:50;2.10;;;1.90;;
209;SDS011;90;48.810;9.120;2022-10-15T01:46:28;1.90;;;1.80;;
209;SDS011;90;48.810;9.120;2022-10-15T01:49:03;1.90;;;1.80;;
209;SDS011;90;48.810;9.120;2022-10-15T01:51:35;3.73;;;2.00;;
209;SDS011;90;48.810;9.120;2022-10-15T01:54:04;2.13;;;2.00;;
209;SDS011;90;48.810;9.120;2022-10-15T01:56:34;2.80;;;2.37;;
209;SDS011;90;48.810;9.120;2022-10-15T01:59:03;1.80;;;1.70;;
209;SDS011;90;48.810;9.120;2022-10-15T02:01:33;2.07;;;1.93;;
209;SDS011;90;48.810;9.120;2022-10-15T02:04:00;2.30;;;2.10;;
209;SDS011;90;48.810;9.120;2022-10-15T02:06:28;2.13;;;1.97;;
209;SDS011;90;48.810;9.120;2022-10-15T02:09:02;1.90;;;1.90;;
209;SDS011;90;48.810;9.120;2022-10-15T02:11:42;1.90;;;1.67;;
209;SDS011;90;48.810;9.120;2022-10-15T02:14:25;1.90;;;1.70;;
209;SDS011;90;48.810;9.120;2022-10-15T02:17:05;4.87;;;1.80;;
209;SDS011;90;48.810;9.120;2022-10-15T02:19:38;1.90;;;1.80;;
209;SDS011;90;48.810;9.120;2022-10-15T02:22:16;1.63;;;1.57;;
209;SDS011;90;48.810;9.120;2022-10-15T02:24:49;1.67;;;1.63;;
209;SDS011;90;48.810;9.120;2022-10-15T02:27:20;2.23;;;2.10;;
209;SDS011;90;48.810;9.120;2022-10-15T02:29:53;1.67;;;1.47;;
209;SDS011;90;48.810;9.120;2022-10-15T02:32:26;2.40;;;2.20;;
209;SDS011;90;48.810;9.120;2022-10-15T02:35:02;4.23;;;2.10;;
209;SDS011;90;48.810;9.120;2022-10-15T02:37:34;2.00;;;1.93;;
209;SDS011;90;48.810;9.120;2022-10-15T02:40:03;2.00;;;1.50;;
209;SDS011;90;48.810;9.120;2022-10-15T02:42:30;2.43;;;1.60;;
209;SDS011;90;48.810;9.120;2022-10-15T02:44:58;1.60;;;1.50;;
209;SDS011;90;48.810;9.120;2022-10-15T02:47:27;2.47;;;2.27;;
209;SDS011;90;48.810;9.120;2022-10-15T02:49:57;1.90;;;1.80;;
209;SDS011;90;48.810;9.120;2022-10-15T02:52:26;1.93;;;1.80;;
209;SDS011;90;48.810;9.120;2022-10-15T02:54:56;1.70;;;1.63;;
209;SDS011;90;48.810;9.120;2022-10-15T02:57:24;5.40;;;1.90;;
209;SDS011;90;48.810;9.120;2022-10-15T02:59:51;3.03;;;1.60;;
209;SDS011;90;48.810;9.120;2022-10-15T03:02:20;2.33;;;1.53;;
209;SDS011;90;48.810;9.120;2022-10-15T03:04:51;2.67;;;1.43;;
209;SDS011;90;48.810;9.120;2022-10-15T03:07:19;1.70;;;1.33;;
209;SDS011;90;48.810;9.120;2022-10-15T03:09:46;2.87;;;1.40;;
209;SDS011;90;48.810;9.120;2022-10-15T03:12:13;4.00;;;1.37;;
209;SDS011;90;48.810;9.120;2022-10-15T03:14:41;2.27;;;1.60;;
209;SDS011;90;48.810;9.120;2022-10-15T03:17:08;1.50;;;1.40;;
209;SDS011;90;48.810;9.120;2022-10-15T03:19:35;1.63;;;1.60;;
209;SDS011;90;48.810;9.120;2022-10-15T03:22:04;1.60;;;1.40;;
209;SDS011;90;48.810;9.120;2022-10-15T03:24:35;3.90;;;1.30;;
209;SDS011;90;48.810;9.120;2022-10-15T03:27:02;2.00;;;1.90;;
209;SDS011;90;48.810;9.120;2022-10-15T03:29:29;1.70;;;1.60;;
209;SDS011;90;48.810;9.120;2022-10-15T03:31:57;1.60;;;1.50;;
209;SDS011;90;48.810;9.120;2022-10-15T03:34:24;3.27;;;1.60;;
209;SDS011;90;48.810;9.120;2022-10-15T03:36:52;1.60;;;1.60;;
209;SDS011;90;48.810;9.120;2022-10-15T03:39:20;2.00;;;1.87;;
209;SDS011;90;48.810;9.120;2022-10-15T03:41:50;3.87;;;1.80;;
209;SDS011;90;48.810;9.120;2022-10-15T03:44:18;2.93;;;1.80;;
209;SDS011;90;48.810;9.120;2022-10-15T03:46:45;8.23;;;1.70;;
209;SDS011;90;48.810;9.120;2022-10-15T03:49:15;1.53;;;1.40;;
209;SDS011;90;48.810;9.120;2022-10-15T03:51:42;1.60;;;1.40;;
209;SDS011;90;48.810;9.120;2022-10-15T03:54:09;2.57;;;1.20;;
209;SDS011;90;48.810;9.120;2022-10-15T03:56:41;3.60;;;1.37;;
209;SDS011;90;48.810;9.120;2022-10-15T03:59:11;1.60;;;1.20;;
209;SDS011;90;48.810;9.120;2022-10-15T04:01:38;1.60;;;1.43;;
209;SDS011;90;48.810;9.120;2022-10-15T04:04:09;1.90;;;1.80;;
209;SDS011;90;48.810;9.120;2022-10-15T04:06:37;1.60;;;1.30;;
209;SDS011;90;48.810;9.120;2022-10-15T04:09:08;1.60;;;1.57;;
209;SDS011;90;48.810;9.120;2022-10-15T04:11:38;1.80;;;1.60;;
209;SDS011;90;48.810;9.120;2022-10-15T04:14:07;2.40;;;1.80;;
209;SDS011;90;48.810;9.120;2022-10-15T04:16:39;5.40;;;1.40;;
209;SDS011;90;48.810;9.120;2022-10-15T04:19:06;1.60;;;1.20;;
209;SDS011;90;48.810;9.120;2022-10-15T04:21:45;1.70;;;1.60;;
209;SDS011;90;48.810;9.120;2022-10-15T04:24:15;2.23;;;1.83;;
209;SDS011;90;48.810;9.120;2022-10-15T04:26:52;2.27;;;2.07;;
209;SDS011;90;48.810;9.120;2022-10-15T04:29:22;1.60;;;1.60;;
209;SDS011;90;48.810;9.120;2022-10-15T04:31:49;1.90;;;1.80;;
209;SDS011;90;48.810;9.120;2022-10-15T04:34:17;1.90;;;1.80;;
209;SDS011;90;48.810;9.120;2022-10-15T04:36:44;2.37;;;1.60;;
209;SDS011;90;48.810;9.120;2022-10-15T04:39:13;3.70;;;1.90;;
209;SDS011;90;48.810;9.120;2022-10-15T04:41:42;2.20;;;1.80;;
209;SDS011;90;48.810;9.120;2022-10-15T04:44:10;2.37;;;1.97;;
209;SDS011;90;48.810;9.120;2022-10-15T04:46:38;1.87;;;1.67;;
209;SDS011;90;48.810;9.120;2022-10-15T04:49:06;2.77;;;1.80;;
209;SDS011;90;48.810;9.120;2022-10-15T04:51:33;2.10;;;1.73;;
209;SDS011;90;48.810;9.120;2022-10-15T04:54:01;2.83;;;1.83;;
209;SDS011;90;48.810;9.120;2022-10-15T04:56:31;1.50;;;1.40;;
209;SDS011;90;48.810;9.120;2022-10-15T04:59:06;2.00;;;1.90;;
209;SDS011;90;48.810;9.120;2022-10-15T05:01:34;1.70;;;1.60;;
209;SDS011;90;48.810;9.120;2022-10-15T05:04:02;1.50;;;1.33;;
209;SDS011;90;48.810;9.120;2022-10-15T05:06:31;1.73;;;1.67;;
209;SDS011;90;48.810;9.120;2022-10-15T05:08:58;2.00;;;1.60;;
209;SDS011;90;48.810;9.120;2022-10-15T05:11:26;1.70;;;1.50;;
209;SDS011;90;48.810;9.120;2022-10-15T05:13:56;1.97;;;1.87;;
209;SDS011;90;48.810;9.120;2022-10-15T05:16:24;2.13;;;1.97;;
209;SDS011;90;48.810;9.120;2022-10-15T05:18:54;1.83;;;1.80;;
209;SDS011;90;48.810;9.120;2022-10-15T05:21:25;1.90;;;1.80;;
209;SDS011;90;48.810;9.120;2022-10-15T05:23:53;2.10;;;1.90;;
209;SDS011;90;48.810;9.120;2022-10-15T05:26:21;2.87;;;1.70;;
209;SDS011;90;48.810;9.120;2022-10-15T05:28:50;2.20;;;2.00;;
209;SDS011;90;48.810;9.120;2022-10-15T05:31:21;1.80;;;1.40;;
209;SDS011;90;48.810;9.120;2022-10-15T05:33:51;2.53;;;2.33;;
209;SDS011;90;48.810;9.120;2022-10-15T05:36:20;1.80;;;1.70;;
209;SDS011;90;48.810;9.120;2022-10-15T05:38:51;2.10;;;1.67;;
209;SDS011;90;48.810;9.120;2022-10-15T05:41:20;2.63;;;1.60;;
209;SDS011;90;48.810;9.120;2022-10-15T05:43:48;2.30;;;2.10;;
209;SDS011;90;48.810;9.120;2022-10-15T05:46:16;2.53;;;1.80;;
209;SDS011;90;48.810;9.120;2022-10-15T05:48:46;5.50;;;1.90;;
209;SDS011;90;48.810;9.120;2022-10-15T05:51:14;2.93;;;1.90;;
209;SDS011;90;48.810;9.120;2022-10-15T05:53:42;2.00;;;1.90;;
209;SDS011;90;48.810;9.120;2022-10-15T05:56:12;2.00;;;1.90;;
209;SDS011;90;48.810;9.120;2022-10-15T05:58:41;1.90;;;1.80;;
209;SDS011;90;48.810;9.120;2022-10-15T06:01:09;2.50;;;2.10;;
209;SDS011;90;48.810;9.120;2022-10-15T06:03:38;4.17;;;1.60;;
209;SDS011;90;48.810;9.120;2022-10-15T06:06:12;4.10;;;2.10;;
209;SDS011;90;48.810;9.120;2022-10-15T06:08:40;2.00;;;1.90;;
209;SDS011;90;48.810;9.120;2022-10-15T06:11:08;1.90;;;1.90;;
209;SDS011;90;48.810;9.120;2022-10-15T06:13:37;2.30;;;2.10;;
209;SDS011;90;48.810;9.120;2022-10-15T06:16:05;2.47;;;2.27;;
209;SDS011;90;48.810;9.120;2022-10-15T06:18:34;3.60;;;1.98;;
209;SDS011;90;48.810;9.120;2022-10-15T06:21:05;3.20;;;1.90;;
209;SDS011;90;48.810;9.120;2022-10-15T06:23:33;2.27;;;2.07;;
209;SDS011;90;48.810;9.120;2022-10-15T06:26:01;2.00;;;1.83;;
209;SDS011;90;48.810;9.120;2022-10-15T06:28:29;2.27;;;2.07;;
209;SDS011;90;48.810;9.120;2022-10-15T06:30:59;1.88;;;1.55;;
209;SDS011;90;48.810;9.120;2022-10-15T06:33:27;3.33;;;2.30;;
209;SDS011;90;48.810;9.120;2022-10-15T06:35:54;2.00;;;1.80;;
209;SDS011;90;48.810;9.120;2022-10-15T06:38:25;3.67;;;2.13;;
209;SDS011;90;48.810;9.120;2022-10-15T06:40:52;2.63;;;2.20;;
209;SDS011;90;48.810;9.120;2022-10-15T06:43:20;2.30;;;2.10;;
209;SDS011;90;48.810;9.120;2022-10-15T06:45:50;4.97;;;2.00;;
209;SDS011;90;48.810;9.120;2022-10-15T06:48:22;18.20;;;2.30;;
209;SDS011;90;48.810;9.120;2022-10-15T06:50:49;2.07;;;1.93;;
209;SDS011;90;48.810;9.120;2022-10-15T06:53:16;2.30;;;2.10;;
209;SDS011;90;48.810;9.120;2022-10-15T06:55:43;2.30;;;2.10;;
209;SDS011;90;48.810;9.120;2022-10-15T06:58:09;2.33;;;2.00;;
209;SDS011;90;48.810;9.120;2022-10-15T07:00:36;2.30;;;2.10;;
209;SDS011;90;48.810;9.120;2022-10-15T07:03:04;2.43;;;2.00;;
209;SDS011;90;48.810;9.120;2022-10-15T07:05:33;3.13;;;2.73;;
209;SDS011;90;48.810;9.120;2022-10-15T07:08:00;3.17;;;2.97;;
209;SDS011;90;48.810;9.120;2022-10-15T07:10:27;4.90;;;2.90;;
209;SDS011;90;48.810;9.120;2022-10-15T07:12:54;3.10;;;2.60;;
209;SDS011;90;48.810;9.120;2022-10-15T07:15:24;3.30;;;2.50;;
209;SDS011;90;48.810;9.120;2022-10-15T07:17:52;2.50;;;2.33;;
209;SDS011;90;48.810;9.120;2022-10-15T07:20:25;5.40;;;2.13;;
209;SDS011;90;48.810;9.120;2022-10-15T07:22:56;2.23;;;2.10;;
209;SDS011;90;48.810;9.120;2022-10-15T07:25:24;2.20;;;2.00;;
209;SDS011;90;48.810;9.120;2022-10-15T07:27:51;2.50;;;2.30;;
209;SDS011;90;48.810;9.120;2022-10-15T07:30:19;2.80;;;2.00;;
209;SDS011;90;48.810;9.120;2022-10-15T07:32:46;2.40;;;2.20;;
209;SDS011;90;48.810;9.120;2022-10-15T07:35:13;2.00;;;1.90;;
209;SDS011;90;48.810;9.120;2022-10-15T07:37:41;3.23;;;2.63;;
209;SDS011;90;48.810;9.120;2022-10-15T07:40:10;3.20;;;3.00;;
209;SDS011;90;48.810;9.120;2022-10-15T07:42:37;3.80;;;3.13;;
209;SDS011;90;48.810;9.120;2022-10-15T07:45:05;2.50;;;2.30;;
209;SDS011;90;48.810;9.120;2022-10-15T07:47:32;2.43;;;2.23;;
209;SDS011;90;48.810;9.120;2022-10-15T07:49:59;2.97;;;2.77;;
209;SDS011;90;48.810;9.120;2022-10-15T07:52:26;2.70;;;2.50;;
209;SDS011;90;48.810;9.120;2022-10-15T07:54:54;2.87;;;2.67;;
209;SDS011;90;48.810;9.120;2022-10-15T07:57:22;3.77;;;2.83;;
209;SDS011;90;48.810;9.120;2022-10-15T07:59:49;2.70;;;2.50;;
209;SDS011;90;48.810;9.120;2022-10-15T08:02:17;2.40;;;2.20;;
209;SDS011;90;48.810;9.120;2022-10-15T08:04:44;2.97;;;2.77;;
209;SDS011;90;48.810;9.120;2022-10-15T08:07:12;3.23;;;2.50;;
209;SDS011;90;48.810;9.120;2022-10-15T08:09:39;3.13;;;2.93;;
209;SDS011;90;48.810;9.120;2022-10-15T08:12:06;3.60;;;3.40;;
209;SDS011;90;48.810;9.120;2022-10-15T08:14:36;2.97;;;2.80;;
209;SDS011;90;48.810;9.120;2022-10-15T08:17:07;3.83;;;2.60;;
209;SDS011;90;48.810;9.120;2022-10-15T08:19:39;2.67;;;2.47;;
209;SDS011;90;48.810;9.120;2022-10-15T08:22:06;2.90;;;2.70;;
209;SDS011;90;48.810;9.120;2022-10-15T08:24:35;2.27;;;2.07;;
209;SDS011;90;48.810;9.120;2022-10-15T08:27:02;3.23;;;2.43;;
209;SDS011;90;48.810;9.120;2022-10-15T08:29:29;2.93;;;2.50;;
209;SDS011;90;48.810;9.120;2022-10-15T08:31:58;2.77;;;2.57;;
209;SDS011;90;48.810;9.120;2022-10-15T08:34:25;2.30;;;2.10;;
209;SDS011;90;48.810;9.120;2022-10-15T08:36:52;2.67;;;2.47;;
209;SDS011;90;48.810;9.120;2022-10-15T08:39:19;3.00;;;2.80;;
209;SDS011;90;48.810;9.120;2022-10-15T08:41:47;2.87;;;2.67;;
209;SDS011;90;48.810;9.120;2022-10-15T08:44:19;2.53;;;2.30;;
209;SDS011;90;48.810;9.120;2022-10-15T08:46:53;2.13;;;2.00;;
209;SDS011;90;48.810;9.120;2022-10-15T08:49:29;3.60;;;2.27;;
209;SDS011;90;48.810;9.120;2022-10-15T08:52:06;4.40;;;1.87;;
209;SDS011;90;48.810;9.120;2022-10-15T08:54:42;7.53;;;3.00;;
209;SDS011;90;48.810;9.120;2022-10-15T08:57:16;4.43;;;2.20;;
209;SDS011;90;48.810;9.120;2022-10-15T08:59:48;2.87;;;2.67;;
209;SDS011;90;48.810;9.120;2022-10-15T09:02:21;2.50;;;2.30;;
209;SDS011;90;48.810;9.120;2022-10-15T09:04:54;2.07;;;1.93;;
209;SDS011;90;48.810;9.120;2022-10-15T09:07:29;2.20;;;2.00;;
209;SDS011;90;48.810;9.120;2022-10-15T09:10:04;2.40;;;2.07;;
209;SDS011;90;48.810;9.120;2022-10-15T09:12:42;4.97;;;2.40;;
209;SDS011;90;48.810;9.120;2022-10-15T09:15:14;2.90;;;2.70;;
209;SDS011;90;48.810;9.120;2022-10-15T09:17:45;2.20;;;2.00;;
209;SDS011;90;48.810;9.120;2022-10-15T09:20:16;3.03;;;2.37;;
209;SDS011;90;48.810;9.120;2022-10-15T09:22:45;1.90;;;1.80;;
209;SDS011;90;48.810;9.120;2022-10-15T09:25:17;2.67;;;2.10;;
209;SDS011;90;48.810;9.120;2022-10-15T09:27:46;5.43;;;2.13;;
209;SDS011;90;48.810;9.120;2022-10-15T09:30:22;3.53;;;1.67;;
209;SDS011;90;48.810;9.120;2022-10-15T09:33:00;2.00;;;1.90;;
209;SDS011;90;48.810;9.120;2022-10-15T09:35:35;2.50;;;1.87;;
209;SDS011;90;48.810;9.120;2022-10-15T09:38:11;2.07;;;1.93;;
209;SDS011;90;48.810;9.120;2022-10-15T09:40:53;1.90;;;1.80;;
209;SDS011;90;48.810;9.120;2022-10-15T09:43:27;2.93;;;1.80;;
209;SDS011;90;48.810;9.120;2022-10-15T09:46:02;3.33;;;3.13;;
209;SDS011;90;48.810;9.120;2022-10-15T09:48:35;2.30;;;2.10;;
209;SDS011;90;48.810;9.120;2022-10-15T09:51:10;2.30;;;2.13;;
209;SDS011;90;48.810;9.120;2022-10-15T09:53:44;1.70;;;1.70;;
209;SDS011;90;48.810;9.120;2022-10-15T09:56:18;2.40;;;2.20;;
209;SDS011;90;48.810;9.120;2022-10-15T09:58:49;5.10;;;2.10;;
209;SDS011;90;48.810;9.120;2022-10-15T10:01:19;2.30;;;2.10;;
209;SDS011;90;48.810;9.120;2022-10-15T10:03:49;2.50;;;2.30;;
209;SDS011;90;48.810;9.120;2022-10-15T10:06:20;3.93;;;2.03;;
209;SDS011;90;48.810;9.120;2022-10-15T10:08:50;1.97;;;1.87;;
209;SDS011;90;48.810;9.120;2022-10-15T10:11:21;2.57;;;2.10;;
209;SDS011;90;48.810;9.120;2022-10-15T10:13:50;1.90;;;1.80;;
209;SDS011;90;48.810;9.120;2022-10-15T10:16:20;2.30;;;2.10;;
209;SDS011;90;48.810;9.120;2022-10-15T10:19:01;2.63;;;1.90;;
209;SDS011;90;48.810;9.120;2022-10-15T10:21:33;2.50;;;2.23;;
209;SDS011;90;48.810;9.120;2022-10-15T10:24:22;2.63;;;2.40;;
209;SDS011;90;48.810;9.120;2022-10-15T10:26:54;2.80;;;2.33;;
209;SDS011;90;48.810;9.120;2022-10-15T10:29:22;3.40;;;2.10;;
209;SDS011;90;48.810;9.120;2022-10-15T10:31:51;4.10;;;2.10;;
209;SDS011;90;48.810;9.120;2022-10-15T10:34:20;2.47;;;2.03;;
209;SDS011;90;48.810;9.120;2022-10-15T10:36:54;2.30;;;2.10;;
209;SDS011;90;48.810;9.120;2022-10-15T10:39:24;4.27;;;2.10;;
209;SDS011;90;48.810;9.120;2022-10-15T10:41:55;2.50;;;2.30;;
209;SDS011;90;48.810;9.120;2022-10-15T10:44:28;2.80;;;2.60;;
209;SDS011;90;48.810;9.120;2022-10-15T10:47:04;2.77;;;2.57;;
209;SDS011;90;48.810;9.120;2022-10-15T10:49:40;2.70;;;2.50;;
209;SDS011;90;48.810;9.120;2022-10-15T10:55:03;3.77;;;2.80;;
209;SDS011;90;48.810;9.120;2022-10-15T10:57:39;3.20;;;2.60;;
209;SDS011;90;48.810;9.120;2022-10-15T11:00:12;2.83;;;2.63;;
209;SDS011;90;48.810;9.120;2022-10-15T11:02:42;6.37;;;2.43;;
209;SDS011;90;48.810;9.120;2022-10-15T11:05:09;2.63;;;2.47;;
209;SDS011;90;48.810;9.120;2022-10-15T11:07:40;4.37;;;4.07;;
209;SDS011;90;48.810;9.120;2022-10-15T11:10:17;2.50;;;2.30;;
209;SDS011;90;48.810;9.120;2022-10-15T11:13:01;2.70;;;2.50;;
209;SDS011;90;48.810;9.120;2022-10-15T11:15:43;2.80;;;2.60;;
209;SDS011;90;48.810;9.120;2022-10-15T11:18:26;2.87;;;2.67;;
209;SDS011;90;48.810;9.120;2022-10-15T11:21:02;3.30;;;2.77;;
209;SDS011;90;48.810;9.120;2022-10-15T11:23:41;4.43;;;2.40;;
209;SDS011;90;48.810;9.120;2022-10-15T11:26:22;2.70;;;2.50;;
209;SDS011;90;48.810;9.120;2022-10-15T11:29:08;4.53;;;2.70;;
209;SDS011;90;48.810;9.120;2022-10-15T11:31:43;4.63;;;2.33;;
209;SDS011;90;48.810;9.120;2022-10-15T11:34:21;2.90;;;2.80;;
209;SDS011;90;48.810;9.120;2022-10-15T11:37:06;4.17;;;2.97;;
209;SDS011;90;48.810;9.120;2022-10-15T11:39:48;2.90;;;2.70;;
209;SDS011;90;48.810;9.120;2022-10-15T11:42:27;3.40;;;3.20;;
209;SDS011;90;48.810;9.120;2022-10-15T11:45:07;3.20;;;3.00;;
209;SDS011;90;48.810;9.120;2022-10-15T11:47:53;3.00;;;2.80;;
209;SDS011;90;48.810;9.120;2022-10-15T11:50:26;3.70;;;2.63;;
209;SDS011;90;48.810;9.120;2022-10-15T11:53:10;3.10;;;2.90;;
209;SDS011;90;48.810;9.120;2022-10-15T11:55:58;4.00;;;2.80;;
209;SDS011;90;48.810;9.120;2022-10-15T11:58:31;3.00;;;2.80;;
209;SDS011;90;48.810;9.120;2022-10-15T12:01:03;2.70;;;2.50;;
209;SDS011;90;48.810;9.120;2022-10-15T12:03:34;2.60;;;2.40;;
209;SDS011;90;48.810;9.120;2022-10-15T12:06:07;2.80;;;2.60;;
209;SDS011;90;48.810;9.120;2022-10-15T12:08:38;3.30;;;2.50;;
209;SDS011;90;48.810;9.120;2022-10-15T12:11:12;3.00;;;2.80;;
209;SDS011;90;48.810;9.120;2022-10-15T12:13:47;2.53;;;2.37;;
209;SDS011;90;48.810;9.120;2022-10-15T12:16:21;2.70;;;2.50;;
209;SDS011;90;48.810;9.120;2022-10-15T12:18:54;4.43;;;2.80;;
209;SDS011;90;48.810;9.120;2022-10-15T12:21:29;2.60;;;2.40;;
209;SDS011;90;48.810;9.120;2022-10-15T12:24:02;3.13;;;2.50;;
209;SDS011;90;48.810;9.120;2022-10-15T12:26:36;2.73;;;2.57;;
209;SDS011;90;48.810;9.120;2022-10-15T12:29:04;3.10;;;2.90;;
209;SDS011;90;48.810;9.120;2022-10-15T12:31:46;2.60;;;2.40;;
209;SDS011;90;48.810;9.120;2022-10-15T12:37:12;7.23;;;2.47;;
209;SDS011;90;48.810;9.120;2022-10-15T12:39:42;2.37;;;2.17;;
209;SDS011;90;48.810;9.120;2022-10-15T12:42:21;2.40;;;2.20;;
209;SDS011;90;48.810;9.120;2022-10-15T12:44:53;2.63;;;2.50;;
209;SDS011;90;48.810;9.120;2022-10-15T12:50:18;3.37;;;2.30;;
209;SDS011;90;48.810;9.120;2022-10-15T12:52:56;5.60;;;2.53;;
209;SDS011;90;48.810;9.120;2022-10-15T12:55:27;2.63;;;2.43;;
209;SDS011;90;48.810;9.120;2022-10-15T12:57:58;3.10;;;2.90;;
209;SDS011;90;48.810;9.120;2022-10-15T13:03:16;3.10;;;2.90;;
209;SDS011;90;48.810;9.120;2022-10-15T13:05:49;2.90;;;2.70;;
209;SDS011;90;48.810;9.120;2022-10-15T13:08:20;3.00;;;2.13;;
209;SDS011;90;48.810;9.120;2022-10-15T13:10:49;3.00;;;2.37;;
209;SDS011;90;48.810;9.120;2022-10-15T13:13:21;3.00;;;2.80;;
209;SDS011;90;48.810;9.120;2022-10-15T13:15:56;3.30;;;3.10;;
209;SDS011;90;48.810;9.120;2022-10-15T13:18:24;3.73;;;3.13;;
209;SDS011;90;48.810;9.120;2022-10-15T13:20:54;2.50;;;2.30;;
209;SDS011;90;48.810;9.120;2022-10-15T13:23:22;4.93;;;3.00;;
209;SDS011;90;48.810;9.120;2022-10-15T13:25:52;3.60;;;3.03;;
209;SDS011;90;48.810;9.120;2022-10-15T13:28:37;3.07;;;2.87;;
209;SDS011;90;48.810;9.120;2022-10-15T13:31:06;4.47;;;2.90;;
209;SDS011;90;48.810;9.120;2022-10-15T13:33:40;4.00;;;2.80;;
209;SDS011;90;48.810;9.120;2022-10-15T13:36:12;3.33;;;3.13;;
209;SDS011;90;48.810;9.120;2022-10-15T13:38:47;3.50;;;3.30;;
209;SDS011;90;48.810;9.120;2022-10-15T13:41:21;3.17;;;2.97;;
209;SDS011;90;48.810;9.120;2022-10-15T13:43:52;6.03;;;3.40;;
209;SDS011;90;48.810;9.120;2022-10-15T13:46:23;3.00;;;2.80;;
209;SDS011;90;48.810;9.120;2022-10-15T13:48:55;3.30;;;2.93;;
209;SDS011;90;48.810;9.120;2022-10-15T13:51:27;8.90;;;2.70;;
209;SDS011;90;48.810;9.120;2022-10-15T13:54:01;3.00;;;2.80;;
209;SDS011;90;48.810;9.120;2022-10-15T13:56:34;3.00;;;2.80;;
209;SDS011;90;48.810;9.120;2022-10-15T13:59:03;2.73;;;2.53;;
209;SDS011;90;48.810;9.120;2022-10-15T14:01:31;3.00;;;2.80;;
209;SDS011;90;48.810;9.120;2022-10-15T14:04:01;5.93;;;2.80;;
209;SDS011;90;48.810;9.120;2022-10-15T14:06:29;3.17;;;2.97;;
209;SDS011;90;48.810;9.120;2022-10-15T14:08:58;3.20;;;3.00;;
209;SDS011;90;48.810;9.120;2022-10-15T14:11:27;3.13;;;2.77;;
209;SDS011;90;48.810;9.120;2022-10-15T14:13:55;5.83;;;2.90;;
209;SDS011;90;48.810;9.120;2022-10-15T14:16:30;2.70;;;2.40;;
209;SDS011;90;48.810;9.120;2022-10-15T14:19:07;4.37;;;3.17;;
209;SDS011;90;48.810;9.120;2022-10-15T14:21:36;2.97;;;2.80;;
209;SDS011;90;48.810;9.120;2022-10-15T14:24:13;3.60;;;3.00;;
209;SDS011;90;48.810;9.120;2022-10-15T14:26:42;3.23;;;3.03;;
209;SDS011;90;48.810;9.120;2022-10-15T14:29:13;3.70;;;2.70;;
209;SDS011;90;48.810;9.120;2022-10-15T14:31:46;5.10;;;3.30;;
209;SDS011;90;48.810;9.120;2022-10-15T14:34:25;5.03;;;2.93;;
209;SDS011;90;48.810;9.120;2022-10-15T14:36:55;7.30;;;2.50;;
209;SDS011;90;48.810;9.120;2022-10-15T14:39:27;2.90;;;2.70;;
209;SDS011;90;48.810;9.120;2022-10-15T14:41:56;3.20;;;3.00;;
209;SDS011;90;48.810;9.120;2022-10-15T14:44:24;2.80;;;2.60;;
209;SDS011;90;48.810;9.120;2022-10-15T14:46:59;3.20;;;3.00;;
209;SDS011;90;48.810;9.120;2022-10-15T14:49:29;3.40;;;3.20;;
209;SDS011;90;48.810;9.120;2022-10-15T14:52:00;3.27;;;3.07;;
209;SDS011;90;48.810;9.120;2022-10-15T14:54:35;3.40;;;3.20;;
209;SDS011;90;48.810;9.120;2022-10-15T14:57:09;3.07;;;2.87;;
209;SDS011;90;48.810;9.120;2022-10-15T14:59:42;3.57;;;3.00;;
209;SDS011;90;48.810;9.120;2022-10-15T15:02:12;2.97;;;2.77;;
209;SDS011;90;48.810;9.120;2022-10-15T15:04:41;3.63;;;3.10;;
209;SDS011;90;48.810;9.120;2022-10-15T15:07:28;3.27;;;2.70;;
209;SDS011;90;48.810;9.120;2022-10-15T15:09:56;3.33;;;3.13;;
209;SDS011;90;48.810;9.120;2022-10-15T15:12:26;3.40;;;3.20;;
209;SDS011;90;48.810;9.120;2022-10-15T15:14:55;4.57;;;3.23;;
209;SDS011;90;48.810;9.120;2022-10-15T15:17:29;3.60;;;3.07;;
209;SDS011;90;48.810;9.120;2022-10-15T15:20:10;3.10;;;2.90;;
209;SDS011;90;48.810;9.120;2022-10-15T15:22:38;3.20;;;3.00;;
209;SDS011;90;48.810;9.120;2022-10-15T15:25:12;5.03;;;3.00;;
209;SDS011;90;48.810;9.120;2022-10-15T15:27:41;3.20;;;3.00;;
209;SDS011;90;48.810;9.120;2022-10-15T15:30:12;5.03;;;3.40;;
209;SDS011;90;48.810;9.120;2022-10-15T15:32:43;3.90;;;3.10;;
209;SDS011;90;48.810;9.120;2022-10-15T15:35:18;3.38;;;2.85;;
209;SDS011;90;48.810;9.120;2022-10-15T15:37:50;7.10;;;3.33;;
209;SDS011;90;48.810;9.120;2022-10-15T15:40:20;3.37;;;3.20;;
209;SDS011;90;48.810;9.120;2022-10-15T15:42:54;2.90;;;2.70;;
209;SDS011;90;48.810;9.120;2022-10-15T15:45:24;3.60;;;2.60;;
209;SDS011;90;48.810;9.120;2022-10-15T15:47:55;2.60;;;2.40;;
209;SDS011;90;48.810;9.120;2022-10-15T15:50:30;2.77;;;2.57;;
209;SDS011;90;48.810;9.120;2022-10-15T15:53:02;3.20;;;2.80;;
209;SDS011;90;48.810;9.120;2022-10-15T15:55:30;4.70;;;3.00;;
209;SDS011;90;48.810;9.120;2022-10-15T15:57:59;3.07;;;2.87;;
209;SDS011;90;48.810;9.120;2022-10-15T16:00:28;5.23;;;2.80;;
209;SDS011;90;48.810;9.120;2022-10-15T16:02:57;3.00;;;2.80;;
209;SDS011;90;48.810;9.120;2022-10-15T16:05:24;2.57;;;2.37;;
209;SDS011;90;48.810;9.120;2022-10-15T16:07:57;3.93;;;2.80;;
209;SDS011;90;48.810;9.120;2022-10-15T16:10:29;3.10;;;2.90;;
209;SDS011;90;48.810;9.120;2022-10-15T16:13:02;6.83;;;3.00;;
209;SDS011;90;48.810;9.120;2022-10-15T16:15:30;3.00;;;2.80;;
209;SDS011;90;48.810;9.120;2022-10-15T16:17:58;4.80;;;2.70;;
209;SDS011;90;48.810;9.120;2022-10-15T16:20:27;2.37;;;2.03;;
209;SDS011;90;48.810;9.120;2022-10-15T16:22:57;5.20;;;2.30;;
209;SDS011;90;48.810;9.120;2022-10-15T16:25:24;3.50;;;2.63;;
209;SDS011;90;48.810;9.120;2022-10-15T16:27:56;2.67;;;2.47;;
209;SDS011;90;48.810;9.120;2022-10-15T16:30:26;4.60;;;2.50;;
209;SDS011;90;48.810;9.120;2022-10-15T16:32:56;2.70;;;2.50;;
209;SDS011;90;48.810;9.120;2022-10-15T16:35:24;6.00;;;2.77;;
209;SDS011;90;48.810;9.120;2022-10-15T16:37:52;2.40;;;2.20;;
209;SDS011;90;48.810;9.120;2022-10-15T16:40:20;5.90;;;2.50;;
209;SDS011;90;48.810;9.120;2022-10-15T16:42:47;2.33;;;2.20;;
209;SDS011;90;48.810;9.120;2022-10-15T16:45:15;2.50;;;2.30;;
209;SDS011;90;48.810;9.120;2022-10-15T16:47:42;5.80;;;2.70;;